sensor_id;sensor_type;location;lat;lon;timestamp;temperature;humidity
53286;DHT22;39171;45.550;12.074;2022-12-13T00:03:55;13.60;60.10
53286;DHT22;39171;45.550;12.074;2022-12-13T00:09:59;13.50;60.30
53286;DHT22;39171;45.550;12.074;2022-12-13T00:16:05;13.50;60.90
53286;DHT22;39171;45.550;12.074;2022-12-13T00:22:07;13.50;60.70
53286;DHT22;39171;45.550;12.074;2022-12-13T00:28:09;13.50;60.90
53286;DHT22;39171;45.550;12.074;2022-12-13T00:34:11;13.40;60.90
53286;DHT22;39171;45.550;12.074;2022-12-13T00:40:13;13.40;60.80
53286;DHT22;39171;45.550;12.074;2022-12-13T00:46:16;13.40;60.70
53286;DHT22;39171;45.550;12.074;2022-12-13T00:52:18;13.40;60.70
53286;DHT22;39171;45.550;12.074;2022-12-13T00:58:20;13.30;61.00
53286;DHT22;39171;45.550;12.074;2022-12-13T01:04:22;13.30;60.80
53286;DHT22;39171;45.550;12.074;2022-12-13T01:10:23;13.20;60.90
53286;DHT22;39171;45.550;12.074;2022-12-13T01:16:25;13.20;60.90
53286;DHT22;39171;45.550;12.074;2022-12-13T01:22:27;13.20;60.90
53286;DHT22;39171;45.550;12.074;2022-12-13T01:28:29;13.20;61.20
53286;DHT22;39171;45.550;12.074;2022-12-13T01:34:30;13.20;61.20
53286;DHT22;39171;45.550;12.074;2022-12-13T01:40:31;13.20;61.70
53286;DHT22;39171;45.550;12.074;2022-12-13T01:46:33;13.10;61.40
53286;DHT22;39171;45.550;12.074;2022-12-13T01:52:35;13.10;61.30
53286;DHT22;39171;45.550;12.074;2022-12-13T01:58:38;13.10;61.30
53286;DHT22;39171;45.550;12.074;2022-12-13T02:04:57;13.00;61.40
53286;DHT22;39171;45.550;12.074;2022-12-13T02:11:03;13.00;61.50
53286;DHT22;39171;45.550;12.074;2022-12-13T02:17:19;12.90;61.40
53286;DHT22;39171;45.550;12.074;2022-12-13T02:23:59;13.00;61.60
53286;DHT22;39171;45.550;12.074;2022-12-13T02:30:17;12.90;61.60
53286;DHT22;39171;45.550;12.074;2022-12-13T02:36:52;12.90;61.60
53286;DHT22;39171;45.550;12.074;2022-12-13T02:43:17;12.90;61.70
53286;DHT22;39171;45.550;12.074;2022-12-13T02:49:23;12.80;61.70
53286;DHT22;39171;45.550;12.074;2022-12-13T02:55:25;12.80;61.80
53286;DHT22;39171;45.550;12.074;2022-12-13T03:01:31;12.80;61.80
53286;DHT22;39171;45.550;12.074;2022-12-13T03:07:39;12.70;61.80
53286;DHT22;39171;45.550;12.074;2022-12-13T03:14:01;12.70;62.10
53286;DHT22;39171;45.550;12.074;2022-12-13T03:20:08;12.70;62.10
53286;DHT22;39171;45.550;12.074;2022-12-13T03:26:13;12.70;62.20
53286;DHT22;39171;45.550;12.074;2022-12-13T03:32:15;12.70;62.20
53286;DHT22;39171;45.550;12.074;2022-12-13T03:38:17;12.60;62.20
53286;DHT22;39171;45.550;12.074;2022-12-13T03:44:19;12.60;62.30
53286;DHT22;39171;45.550;12.074;2022-12-13T03:50:21;12.60;62.50
53286;DHT22;39171;45.550;12.074;2022-12-13T03:56:23;12.50;62.50
53286;DHT22;39171;45.550;12.074;2022-12-13T04:02:24;12.50;62.60
53286;DHT22;39171;45.550;12.074;2022-12-13T04:08:26;12.50;62.60
53286;DHT22;39171;45.550;12.074;2022-12-13T04:14:27;12.50;62.60
53286;DHT22;39171;45.550;12.074;2022-12-13T04:20:28;12.40;63.10
53286;DHT22;39171;45.550;12.074;2022-12-13T04:26:30;12.40;63.40
53286;DHT22;39171;45.550;12.074;2022-12-13T04:32:31;12.60;63.30
53286;DHT22;39171;45.550;12.074;2022-12-13T04:38:33;12.80;62.90
53286;DHT22;39171;45.550;12.074;2022-12-13T04:44:35;13.10;62.30
53286;DHT22;39171;45.550;12.074;2022-12-13T04:50:36;13.30;61.70
53286;DHT22;39171;45.550;12.074;2022-12-13T04:56:40;13.50;61.20
53286;DHT22;39171;45.550;12.074;2022-12-13T05:02:45;13.70;60.60
53286;DHT22;39171;45.550;12.074;2022-12-13T05:08:47;13.80;60.20
53286;DHT22;39171;45.550;12.074;2022-12-13T05:14:50;14.00;59.60
53286;DHT22;39171;45.550;12.074;2022-12-13T05:20:52;14.10;59.20
53286;DHT22;39171;45.550;12.074;2022-12-13T05:26:53;14.20;58.80
53286;DHT22;39171;45.550;12.074;2022-12-13T05:32:55;14.30;58.50
53286;DHT22;39171;45.550;12.074;2022-12-13T05:38:56;14.40;58.20
53286;DHT22;39171;45.550;12.074;2022-12-13T05:44:58;14.40;58.00
53286;DHT22;39171;45.550;12.074;2022-12-13T05:50:59;14.50;57.80
53286;DHT22;39171;45.550;12.074;2022-12-13T05:57:00;14.50;57.50
53286;DHT22;39171;45.550;12.074;2022-12-13T06:03:02;14.60;57.30
53286;DHT22;39171;45.550;12.074;2022-12-13T06:09:04;14.70;57.20
53286;DHT22;39171;45.550;12.074;2022-12-13T06:15:06;14.70;57.10
53286;DHT22;39171;45.550;12.074;2022-12-13T06:21:08;14.80;56.80
53286;DHT22;39171;45.550;12.074;2022-12-13T06:27:12;14.80;56.60
53286;DHT22;39171;45.550;12.074;2022-12-13T06:33:13;14.80;56.40
53286;DHT22;39171;45.550;12.074;2022-12-13T06:39:16;14.90;56.20
53286;DHT22;39171;45.550;12.074;2022-12-13T06:45:17;14.90;56.10
53286;DHT22;39171;45.550;12.074;2022-12-13T06:51:20;15.00;56.20
53286;DHT22;39171;45.550;12.074;2022-12-13T06:57:21;15.00;56.00
53286;DHT22;39171;45.550;12.074;2022-12-13T07:03:23;15.00;55.70
53286;DHT22;39171;45.550;12.074;2022-12-13T07:09:25;15.00;55.60
53286;DHT22;39171;45.550;12.074;2022-12-13T07:15:26;15.10;55.40
53286;DHT22;39171;45.550;12.074;2022-12-13T07:21:31;15.10;55.30
53286;DHT22;39171;45.550;12.074;2022-12-13T07:27:33;15.20;55.30
53286;DHT22;39171;45.550;12.074;2022-12-13T07:33:35;15.20;55.10
53286;DHT22;39171;45.550;12.074;2022-12-13T07:39:37;15.20;54.90
53286;DHT22;39171;45.550;12.074;2022-12-13T07:45:39;15.30;54.70
53286;DHT22;39171;45.550;12.074;2022-12-13T07:51:40;15.30;54.60
53286;DHT22;39171;45.550;12.074;2022-12-13T07:57:45;15.40;54.70
53286;DHT22;39171;45.550;12.074;2022-12-13T08:03:49;15.40;54.50
53286;DHT22;39171;45.550;12.074;2022-12-13T08:09:56;15.40;54.30
53286;DHT22;39171;45.550;12.074;2022-12-13T08:16:03;15.50;54.20
53286;DHT22;39171;45.550;12.074;2022-12-13T08:22:04;15.50;54.20
53286;DHT22;39171;45.550;12.074;2022-12-13T08:28:07;15.50;54.00
53286;DHT22;39171;45.550;12.074;2022-12-13T08:34:11;15.60;54.00
53286;DHT22;39171;45.550;12.074;2022-12-13T08:40:13;15.60;53.60
53286;DHT22;39171;45.550;12.074;2022-12-13T08:46:15;15.70;53.90
53286;DHT22;39171;45.550;12.074;2022-12-13T08:52:17;15.70;53.70
53286;DHT22;39171;45.550;12.074;2022-12-13T08:58:19;15.70;53.40
53286;DHT22;39171;45.550;12.074;2022-12-13T09:04:21;15.70;53.10
53286;DHT22;39171;45.550;12.074;2022-12-13T09:10:25;15.70;52.90
53286;DHT22;39171;45.550;12.074;2022-12-13T09:16:27;15.70;53.00
53286;DHT22;39171;45.550;12.074;2022-12-13T09:22:30;15.80;52.90
53286;DHT22;39171;45.550;12.074;2022-12-13T09:28:33;15.80;52.80
53286;DHT22;39171;45.550;12.074;2022-12-13T09:34:35;15.80;52.50
53286;DHT22;39171;45.550;12.074;2022-12-13T09:40:37;15.90;52.60
53286;DHT22;39171;45.550;12.074;2022-12-13T09:46:42;15.90;52.50
53286;DHT22;39171;45.550;12.074;2022-12-13T09:52:45;16.00;52.20
53286;DHT22;39171;45.550;12.074;2022-12-13T09:58:49;16.00;52.40
53286;DHT22;39171;45.550;12.074;2022-12-13T10:04:51;16.00;52.00
53286;DHT22;39171;45.550;12.074;2022-12-13T10:10:53;16.00;52.10
53286;DHT22;39171;45.550;12.074;2022-12-13T10:17:02;16.10;52.10
53286;DHT22;39171;45.550;12.074;2022-12-13T10:23:06;16.00;52.00
53286;DHT22;39171;45.550;12.074;2022-12-13T10:29:08;16.10;52.00
53286;DHT22;39171;45.550;12.074;2022-12-13T10:35:28;16.20;52.00
53286;DHT22;39171;45.550;12.074;2022-12-13T10:41:36;16.20;51.60
53286;DHT22;39171;45.550;12.074;2022-12-13T10:47:41;16.20;51.70
53286;DHT22;39171;45.550;12.074;2022-12-13T10:59:55;16.20;51.40
53286;DHT22;39171;45.550;12.074;2022-12-13T11:06:16;16.20;51.10
53286;DHT22;39171;45.550;12.074;2022-12-13T11:12:23;16.20;51.20
53286;DHT22;39171;45.550;12.074;2022-12-13T11:18:34;16.20;51.30
53286;DHT22;39171;45.550;12.074;2022-12-13T11:24:39;16.30;51.20
53286;DHT22;39171;45.550;12.074;2022-12-13T11:31:36;16.30;51.00
53286;DHT22;39171;45.550;12.074;2022-12-13T11:44:14;16.40;50.70
53286;DHT22;39171;45.550;12.074;2022-12-13T11:50:46;16.40;50.80
53286;DHT22;39171;45.550;12.074;2022-12-13T11:56:46;16.40;50.60
53286;DHT22;39171;45.550;12.074;2022-12-13T12:02:55;16.40;50.60
53286;DHT22;39171;45.550;12.074;2022-12-13T12:09:00;16.40;50.40
53286;DHT22;39171;45.550;12.074;2022-12-13T12:15:31;16.50;50.40
53286;DHT22;39171;45.550;12.074;2022-12-13T12:21:41;16.50;50.10
53286;DHT22;39171;45.550;12.074;2022-12-13T12:34:07;16.50;49.90
53286;DHT22;39171;45.550;12.074;2022-12-13T12:40:37;16.40;50.10
53286;DHT22;39171;45.550;12.074;2022-12-13T12:53:38;16.30;50.40
53286;DHT22;39171;45.550;12.074;2022-12-13T13:00:24;16.30;50.20
53286;DHT22;39171;45.550;12.074;2022-12-13T13:06:24;16.30;50.10
53286;DHT22;39171;45.550;12.074;2022-12-13T13:12:28;16.20;50.30
53286;DHT22;39171;45.550;12.074;2022-12-13T13:18:48;16.30;50.90
53286;DHT22;39171;45.550;12.074;2022-12-13T13:31:56;16.30;50.40
53286;DHT22;39171;45.550;12.074;2022-12-13T13:38:00;16.30;50.70
53286;DHT22;39171;45.550;12.074;2022-12-13T13:50:44;16.40;50.10
53286;DHT22;39171;45.550;12.074;2022-12-13T14:28:55;16.70;50.10
53286;DHT22;39171;45.550;12.074;2022-12-13T14:34:58;16.70;50.00
53286;DHT22;39171;45.550;12.074;2022-12-13T14:41:01;16.70;50.00
53286;DHT22;39171;45.550;12.074;2022-12-13T14:47:07;16.80;49.90
53286;DHT22;39171;45.550;12.074;2022-12-13T14:53:28;16.70;49.80
53286;DHT22;39171;45.550;12.074;2022-12-13T14:59:35;16.70;49.60
53286;DHT22;39171;45.550;12.074;2022-12-13T15:05:45;16.80;49.60
53286;DHT22;39171;45.550;12.074;2022-12-13T15:11:47;16.80;49.40
53286;DHT22;39171;45.550;12.074;2022-12-13T15:24:08;16.80;49.40
53286;DHT22;39171;45.550;12.074;2022-12-13T15:30:22;16.80;49.30
53286;DHT22;39171;45.550;12.074;2022-12-13T15:36:25;16.90;49.30
53286;DHT22;39171;45.550;12.074;2022-12-13T15:42:33;16.90;49.20
53286;DHT22;39171;45.550;12.074;2022-12-13T15:48:41;16.80;49.20
53286;DHT22;39171;45.550;12.074;2022-12-13T16:01:24;16.90;49.10
53286;DHT22;39171;45.550;12.074;2022-12-13T16:07:33;17.00;49.20
53286;DHT22;39171;45.550;12.074;2022-12-13T16:13:40;17.00;49.40
53286;DHT22;39171;45.550;12.074;2022-12-13T16:19:41;16.90;49.40
53286;DHT22;39171;45.550;12.074;2022-12-13T16:25:44;17.00;49.60
53286;DHT22;39171;45.550;12.074;2022-12-13T16:31:45;17.00;49.50
53286;DHT22;39171;45.550;12.074;2022-12-13T16:37:50;17.00;49.40
53286;DHT22;39171;45.550;12.074;2022-12-13T16:43:56;17.00;49.20
53286;DHT22;39171;45.550;12.074;2022-12-13T16:50:05;17.10;49.30
53286;DHT22;39171;45.550;12.074;2022-12-13T17:11:59;17.10;49.10
53286;DHT22;39171;45.550;12.074;2022-12-13T17:18:01;17.10;49.20
53286;DHT22;39171;45.550;12.074;2022-12-13T17:24:09;17.10;49.30
53286;DHT22;39171;45.550;12.074;2022-12-13T17:30:14;17.10;49.40
53286;DHT22;39171;45.550;12.074;2022-12-13T17:36:20;17.10;49.40
53286;DHT22;39171;45.550;12.074;2022-12-13T17:42:23;17.20;49.40
53286;DHT22;39171;45.550;12.074;2022-12-13T17:48:24;17.10;49.10
53286;DHT22;39171;45.550;12.074;2022-12-13T17:54:26;17.10;49.00
53286;DHT22;39171;45.550;12.074;2022-12-13T18:00:28;17.00;49.20
53286;DHT22;39171;45.550;12.074;2022-12-13T18:14:24;16.90;49.20
53286;DHT22;39171;45.550;12.074;2022-12-13T18:20:26;16.80;49.70
53286;DHT22;39171;45.550;12.074;2022-12-13T18:26:27;16.80;49.70
53286;DHT22;39171;45.550;12.074;2022-12-13T18:32:28;16.70;49.90
53286;DHT22;39171;45.550;12.074;2022-12-13T18:38:30;16.70;50.30
53286;DHT22;39171;45.550;12.074;2022-12-13T18:44:32;16.60;50.30
53286;DHT22;39171;45.550;12.074;2022-12-13T18:50:33;16.60;50.20
53286;DHT22;39171;45.550;12.074;2022-12-13T18:56:35;16.50;50.30
53286;DHT22;39171;45.550;12.074;2022-12-13T19:02:36;16.40;50.40
53286;DHT22;39171;45.550;12.074;2022-12-13T19:08:38;16.30;50.50
53286;DHT22;39171;45.550;12.074;2022-12-13T19:14:40;16.30;50.80
53286;DHT22;39171;45.550;12.074;2022-12-13T19:20:46;16.20;51.00
53286;DHT22;39171;45.550;12.074;2022-12-13T19:26:48;16.20;51.20
53286;DHT22;39171;45.550;12.074;2022-12-13T19:32:51;16.20;51.20
53286;DHT22;39171;45.550;12.074;2022-12-13T19:38:53;16.10;51.30
53286;DHT22;39171;45.550;12.074;2022-12-13T19:44:59;16.10;51.40
53286;DHT22;39171;45.550;12.074;2022-12-13T19:51:02;16.00;51.60
53286;DHT22;39171;45.550;12.074;2022-12-13T20:04:17;15.90;51.90
53286;DHT22;39171;45.550;12.074;2022-12-13T20:27:25;15.70;52.30
53286;DHT22;39171;45.550;12.074;2022-12-13T20:40:38;15.60;52.50
53286;DHT22;39171;45.550;12.074;2022-12-13T20:47:15;15.60;52.60
53286;DHT22;39171;45.550;12.074;2022-12-13T21:02:33;15.50;53.00
53286;DHT22;39171;45.550;12.074;2022-12-13T21:10:47;15.40;53.30
53286;DHT22;39171;45.550;12.074;2022-12-13T21:17:20;15.40;53.70
53286;DHT22;39171;45.550;12.074;2022-12-13T21:31:04;15.20;53.40
53286;DHT22;39171;45.550;12.074;2022-12-13T21:37:06;15.20;53.70
53286;DHT22;39171;45.550;12.074;2022-12-13T21:43:08;15.20;53.80
53286;DHT22;39171;45.550;12.074;2022-12-13T21:49:10;15.10;53.80
53286;DHT22;39171;45.550;12.074;2022-12-13T21:55:11;15.10;53.80
53286;DHT22;39171;45.550;12.074;2022-12-13T22:01:13;15.10;54.10
53286;DHT22;39171;45.550;12.074;2022-12-13T22:07:31;15.10;54.40
53286;DHT22;39171;45.550;12.074;2022-12-13T22:13:33;15.00;54.90
53286;DHT22;39171;45.550;12.074;2022-12-13T22:19:34;15.00;54.60
53286;DHT22;39171;45.550;12.074;2022-12-13T22:25:36;14.90;54.60
53286;DHT22;39171;45.550;12.074;2022-12-13T22:31:38;14.90;54.70
53286;DHT22;39171;45.550;12.074;2022-12-13T22:37:40;14.90;54.70
53286;DHT22;39171;45.550;12.074;2022-12-13T22:43:42;14.80;54.80
53286;DHT22;39171;45.550;12.074;2022-12-13T22:49:44;14.80;55.20
53286;DHT22;39171;45.550;12.074;2022-12-13T22:55:45;14.80;55.20
53286;DHT22;39171;45.550;12.074;2022-12-13T23:01:46;14.70;55.50
53286;DHT22;39171;45.550;12.074;2022-12-13T23:07:48;14.70;55.60
53286;DHT22;39171;45.550;12.074;2022-12-13T23:13:54;14.70;55.70
53286;DHT22;39171;45.550;12.074;2022-12-13T23:19:56;14.70;55.80
53286;DHT22;39171;45.550;12.074;2022-12-13T23:26:18;14.70;56.00
53286;DHT22;39171;45.550;12.074;2022-12-13T23:32:21;14.60;56.20
53286;DHT22;39171;45.550;12.074;2022-12-13T23:38:23;14.60;56.10
53286;DHT22;39171;45.550;12.074;2022-12-13T23:44:24;14.60;56.30
53286;DHT22;39171;45.550;12.074;2022-12-13T23:50:26;14.50;56.30
53286;DHT22;39171;45.550;12.074;2022-12-13T23:56:28;14.50;56.60
